createdAt,value
2023-04-05T00:00:42.790Z,33.55
2023-04-05T00:02:03.647Z,28.40
2023-04-05T00:03:24.749Z,34.03
2023-04-05T00:04:45.974Z,27.02
2023-04-05T00:07:27.638Z,42.33
2023-04-05T00:08:48.170Z,42.80
2023-04-05T00:10:09.531Z,40.80
2023-04-05T00:11:31.365Z,44.10
2023-04-05T00:12:53.475Z,40.22
2023-04-05T00:14:14.303Z,38.88
2023-04-05T00:15:34.935Z,41.80
2023-04-05T00:16:55.567Z,38.40
2023-04-05T00:18:16.314Z,39.88
2023-04-05T00:19:36.929Z,35.13
2023-04-05T00:20:57.565Z,32.20
2023-04-05T00:22:18.067Z,36.03
2023-04-05T00:23:38.868Z,36.22
2023-04-05T00:24:59.265Z,42.80
2023-04-05T00:26:20.683Z,33.20
2023-04-05T00:27:43.735Z,40.15
2023-04-05T00:29:06.116Z,40.28
2023-04-05T00:30:26.747Z,37.85
2023-04-05T00:31:47.274Z,36.08
2023-04-05T00:33:08.027Z,36.75
2023-04-05T00:34:28.493Z,35.40
2023-04-05T00:35:56.371Z,34.90
2023-04-05T00:37:17.249Z,35.40
2023-04-05T00:38:38.455Z,29.73
2023-04-05T00:39:59.064Z,31.65
2023-04-05T00:41:19.849Z,32.92
2023-04-05T00:42:40.147Z,26.42
2023-04-05T00:44:00.683Z,29.90
2023-04-05T00:45:25.710Z,25.80
2023-04-05T00:46:49.265Z,23.42
2023-04-05T00:48:09.923Z,21.17
2023-04-05T00:49:30.749Z,23.48
2023-04-05T00:50:52.239Z,22.02
2023-04-05T00:53:36.297Z,18.88
2023-04-05T00:54:57.068Z,20.90
2023-04-05T00:56:17.972Z,30.02
2023-04-05T00:57:38.995Z,19.50
2023-04-05T00:59:00.606Z,19.25
2023-04-05T01:00:22.847Z,24.42
2023-04-05T01:01:43.536Z,19.55
2023-04-05T01:03:05.437Z,19.90
2023-04-05T01:04:27.206Z,23.83
2023-04-05T01:07:13.873Z,32.38
2023-04-05T01:08:55.530Z,30.10
2023-04-05T01:10:17.366Z,28.70
2023-04-05T01:11:39.767Z,39.40
2023-04-05T01:13:02.932Z,44.30
2023-04-05T01:14:23.473Z,45.63
2023-04-05T01:15:45.284Z,45.25
2023-04-05T01:17:05.912Z,39.95
2023-04-05T01:18:27.815Z,41.15
2023-04-05T01:19:49.024Z,43.60
2023-04-05T01:21:24.791Z,37.40
2023-04-05T01:23:13.368Z,43.40
2023-04-05T01:24:39.686Z,37.05
2023-04-05T01:26:51.986Z,48.42
2023-04-05T01:28:35.211Z,41.72
2023-04-05T01:30:03.358Z,49.85
2023-04-05T01:31:29.658Z,46.97
2023-04-05T01:32:56.239Z,44.15
2023-04-05T01:34:23.085Z,41.10
2023-04-05T01:35:51.206Z,43.33
2023-04-05T01:37:13.290Z,66.53
2023-04-05T01:38:37.345Z,68.25
2023-04-05T01:39:58.013Z,49.08
2023-04-05T01:41:18.797Z,26.00
2023-04-05T01:42:46.088Z,27.08
2023-04-05T01:44:06.607Z,23.95
2023-04-05T01:45:28.327Z,28.35
2023-04-05T01:46:48.992Z,23.98
2023-04-05T01:48:09.688Z,24.13
2023-04-05T01:49:32.977Z,22.52
2023-04-05T01:50:53.506Z,23.92
2023-04-05T01:52:14.249Z,21.35
2023-04-05T01:53:34.535Z,21.55
2023-04-05T01:54:57.852Z,23.92
2023-04-05T01:56:18.614Z,25.45
2023-04-05T01:57:39.324Z,24.95
2023-04-05T01:59:02.581Z,22.60
2023-04-05T02:00:23.171Z,23.77
2023-04-05T02:01:45.301Z,30.05
2023-04-05T02:03:05.766Z,37.00
2023-04-05T02:04:26.216Z,46.53
2023-04-05T02:05:46.673Z,43.38
2023-04-05T02:07:07.622Z,49.28
2023-04-05T02:08:28.371Z,57.00
2023-04-05T02:09:49.051Z,50.22
2023-04-05T02:11:09.436Z,47.95
2023-04-05T02:12:29.690Z,54.13
2023-04-05T02:13:50.224Z,48.40
2023-04-05T02:15:11.244Z,48.25
2023-04-05T02:16:31.657Z,54.85
2023-04-05T02:17:53.718Z,56.03
2023-04-05T02:19:14.358Z,58.13
2023-04-05T02:20:34.789Z,61.70
2023-04-05T02:21:55.390Z,48.38
2023-04-05T02:23:15.878Z,50.67
2023-04-05T02:24:36.474Z,41.95
2023-04-05T02:25:57.181Z,37.15
2023-04-05T02:27:17.743Z,32.03
2023-04-05T02:28:40.964Z,28.00
2023-04-05T02:30:01.627Z,30.05
2023-04-05T02:31:22.225Z,25.17
2023-04-05T02:32:43.077Z,27.88
2023-04-05T02:34:04.991Z,29.17
2023-04-05T02:35:25.607Z,27.52
2023-04-05T02:36:46.533Z,23.48
2023-04-05T02:38:07.379Z,28.10
2023-04-05T02:39:29.120Z,26.88
2023-04-05T02:40:54.854Z,30.58
2023-04-05T02:42:15.316Z,31.77
2023-04-05T02:43:41.376Z,30.27
2023-04-05T02:45:01.900Z,29.15
2023-04-05T02:46:22.462Z,26.40
2023-04-05T02:47:42.990Z,27.98
2023-04-05T02:49:05.532Z,27.83
2023-04-05T02:50:26.218Z,37.00
2023-04-05T02:51:46.859Z,51.10
2023-04-05T02:53:07.535Z,50.75
2023-04-05T02:54:28.098Z,66.40
2023-04-05T02:55:52.391Z,47.30
2023-04-05T02:57:15.263Z,60.83
2023-04-05T02:58:35.584Z,52.47
2023-04-05T02:59:55.873Z,47.53
2023-04-05T03:01:18.372Z,44.07
2023-04-05T03:02:39.030Z,40.53
2023-04-05T03:03:59.876Z,37.83
2023-04-05T03:05:22.075Z,29.73
2023-04-05T03:06:43.105Z,33.15
2023-04-05T03:08:04.090Z,31.00
2023-04-05T03:09:27.066Z,38.15
2023-04-05T03:10:55.108Z,38.03
2023-04-05T03:12:15.770Z,34.80
2023-04-05T03:13:36.671Z,28.85
2023-04-05T03:14:57.180Z,23.48
2023-04-05T03:16:17.936Z,27.00
2023-04-05T03:17:38.496Z,26.02
2023-04-05T03:18:59.270Z,27.27
2023-04-05T03:20:21.192Z,28.45
2023-04-05T03:21:41.782Z,26.50
2023-04-05T03:23:02.207Z,25.00
2023-04-05T03:24:22.962Z,22.00
2023-04-05T03:25:43.477Z,23.77
2023-04-05T03:27:04.349Z,24.35
2023-04-05T03:28:25.642Z,30.35
2023-04-05T03:29:46.333Z,27.85
2023-04-05T03:31:07.039Z,25.83
2023-04-05T03:32:27.538Z,25.25
2023-04-05T03:33:48.147Z,23.03
2023-04-05T03:35:09.410Z,24.15
2023-04-05T03:36:31.314Z,23.40
2023-04-05T03:37:51.632Z,21.40
2023-04-05T03:39:15.419Z,21.50
2023-04-05T03:40:35.923Z,22.55
2023-04-05T03:41:56.597Z,19.75
2023-04-05T03:43:16.928Z,28.58
2023-04-05T03:44:37.509Z,24.42
2023-04-05T03:45:57.752Z,22.63
2023-04-05T03:47:18.389Z,23.33
2023-04-05T03:48:39.021Z,21.50
2023-04-05T03:49:59.729Z,22.92
2023-04-05T03:51:20.399Z,24.30
2023-04-05T03:52:42.080Z,22.08
2023-04-05T03:54:02.516Z,23.63
2023-04-05T03:55:23.201Z,21.42
2023-04-05T03:56:43.999Z,25.73
2023-04-05T03:58:05.005Z,25.05
2023-04-05T03:59:25.498Z,23.53
2023-04-05T04:00:46.375Z,20.73
2023-04-05T04:02:06.820Z,23.42
2023-04-05T04:03:27.727Z,23.58
2023-04-05T04:04:50.624Z,22.13
2023-04-05T04:06:11.429Z,22.27
2023-04-05T04:07:31.703Z,24.58
2023-04-05T04:08:53.628Z,25.10
2023-04-05T04:10:15.649Z,24.40
2023-04-05T04:11:36.148Z,21.23
2023-04-05T04:12:56.724Z,25.88
2023-04-05T04:14:17.200Z,30.13
2023-04-05T04:15:37.743Z,25.52
2023-04-05T04:17:01.689Z,23.55
2023-04-05T04:18:22.343Z,23.70
2023-04-05T04:19:43.171Z,24.20
2023-04-05T04:21:04.131Z,25.50
2023-04-05T04:22:25.411Z,22.07
2023-04-05T04:23:45.594Z,20.35
2023-04-05T04:25:09.196Z,22.98
2023-04-05T04:26:30.192Z,21.23
2023-04-05T04:27:50.916Z,25.95
2023-04-05T04:29:11.804Z,25.10
2023-04-05T04:30:32.234Z,23.88
2023-04-05T04:31:53.190Z,22.45
2023-04-05T04:33:13.811Z,24.50
2023-04-05T04:34:34.496Z,23.70
2023-04-05T04:35:55.497Z,26.55
2023-04-05T04:37:16.246Z,26.13
2023-04-05T04:38:38.511Z,24.80
2023-04-05T04:39:59.083Z,22.00
2023-04-05T04:41:21.011Z,22.60
2023-04-05T04:42:41.559Z,26.08
2023-04-05T04:44:02.125Z,29.23
2023-04-05T04:45:22.898Z,22.45
2023-04-05T04:46:43.667Z,24.30
2023-04-05T04:48:04.915Z,25.33
2023-04-05T04:49:25.533Z,21.35
2023-04-05T04:50:46.743Z,23.40
2023-04-05T04:52:07.243Z,20.75
2023-04-05T04:53:28.002Z,23.33
2023-04-05T04:54:50.024Z,22.25
2023-04-05T04:56:10.983Z,23.00
2023-04-05T04:57:32.602Z,20.52
2023-04-05T04:58:54.939Z,22.48
2023-04-05T05:00:15.735Z,24.02
2023-04-05T05:01:36.651Z,24.17
2023-04-05T05:02:57.244Z,25.02
2023-04-05T05:04:18.080Z,23.30
2023-04-05T05:05:42.705Z,26.27
2023-04-05T05:07:03.582Z,26.35
2023-04-05T05:08:23.964Z,28.52
2023-04-05T05:09:44.719Z,26.08
2023-04-05T05:11:07.525Z,25.65
2023-04-05T05:12:28.152Z,24.38
2023-04-05T05:13:53.162Z,26.90
2023-04-05T05:15:14.418Z,24.65
2023-04-05T05:16:35.215Z,25.48
2023-04-05T05:17:55.556Z,26.55
2023-04-05T05:19:15.731Z,26.08
2023-04-05T05:20:36.703Z,26.73
2023-04-05T05:21:57.418Z,23.60
2023-04-05T05:23:18.137Z,24.20
2023-04-05T05:24:38.755Z,22.57
2023-04-05T05:25:59.535Z,22.58
2023-04-05T05:27:22.306Z,27.63
2023-04-05T05:28:42.999Z,21.30
2023-04-05T05:30:05.687Z,26.52
2023-04-05T05:31:26.251Z,25.65
2023-04-05T05:32:47.196Z,27.27
2023-04-05T05:34:07.939Z,28.45
2023-04-05T05:35:28.447Z,24.70
2023-04-05T05:36:48.969Z,28.88
2023-04-05T05:38:11.323Z,27.63
2023-04-05T05:39:33.504Z,23.60
2023-04-05T05:40:57.346Z,26.65
2023-04-05T05:42:17.727Z,24.92
2023-04-05T05:43:38.072Z,28.48
2023-04-05T05:45:02.200Z,24.27
2023-04-05T05:46:24.612Z,27.95
2023-04-05T05:47:45.591Z,28.10
2023-04-05T05:49:05.970Z,29.02
2023-04-05T05:50:26.453Z,30.83
2023-04-05T05:51:47.082Z,27.52
2023-04-05T05:53:08.009Z,27.40
2023-04-05T05:54:28.823Z,28.05
2023-04-05T05:55:49.555Z,27.83
2023-04-05T05:57:09.876Z,28.00
2023-04-05T05:58:30.389Z,30.02
2023-04-05T05:59:50.830Z,27.15
2023-04-05T06:01:11.565Z,30.15
2023-04-05T06:02:33.667Z,28.92
2023-04-05T06:03:54.751Z,28.38
2023-04-05T06:05:15.462Z,25.60
2023-04-05T06:06:37.686Z,31.23
2023-04-05T06:07:58.512Z,26.35
2023-04-05T06:09:19.191Z,27.70
2023-04-05T06:10:39.859Z,29.80
2023-04-05T06:12:00.619Z,29.08
2023-04-05T06:13:21.266Z,30.50
2023-04-05T06:14:41.907Z,31.05
2023-04-05T06:16:02.620Z,32.13
2023-04-05T06:17:23.920Z,26.25
2023-04-05T06:18:45.707Z,32.17
2023-04-05T06:20:07.723Z,29.40
2023-04-05T06:21:28.056Z,29.13
2023-04-05T06:22:48.828Z,31.00
2023-04-05T06:24:09.653Z,30.73
2023-04-05T06:25:30.282Z,33.88
2023-04-05T06:26:51.323Z,29.80
2023-04-05T06:28:11.679Z,28.25
2023-04-05T06:29:32.385Z,30.40
2023-04-05T06:30:53.884Z,30.75
2023-04-05T06:33:35.150Z,29.20
2023-04-05T06:34:56.821Z,37.88
2023-04-05T06:37:37.185Z,41.03
2023-04-05T06:38:57.598Z,34.00
2023-04-05T06:40:18.677Z,38.80
2023-04-05T06:41:39.129Z,32.15
2023-04-05T06:42:59.826Z,32.83
2023-04-05T06:44:20.435Z,36.15
2023-04-05T06:45:40.851Z,31.23
2023-04-05T06:47:01.162Z,33.33
2023-04-05T06:48:21.598Z,31.70
2023-04-05T06:49:42.096Z,30.75
2023-04-05T06:51:04.639Z,35.40
2023-04-05T06:52:25.253Z,31.70
2023-04-05T06:53:45.730Z,40.03
2023-04-05T06:55:07.570Z,38.53
2023-04-05T06:56:28.265Z,39.58
2023-04-05T06:57:49.062Z,32.53
2023-04-05T06:59:09.738Z,31.35
2023-04-05T07:00:30.555Z,32.08
2023-04-05T07:01:51.178Z,34.33
2023-04-05T07:03:11.523Z,33.65
2023-04-05T07:04:32.111Z,31.30
2023-04-05T07:05:53.347Z,31.48
2023-04-05T07:07:15.234Z,33.55
2023-04-05T07:08:35.837Z,31.08
2023-04-05T07:09:56.406Z,34.70
2023-04-05T07:11:16.996Z,37.53
2023-04-05T07:12:37.748Z,38.35
2023-04-05T07:13:58.500Z,33.25
2023-04-05T07:15:19.183Z,40.17
2023-04-05T07:16:39.637Z,39.78
2023-04-05T07:18:00.590Z,31.30
2023-04-05T07:19:20.929Z,36.63
2023-04-05T07:20:41.365Z,32.80
2023-04-05T07:22:01.881Z,32.05
2023-04-05T07:23:24.003Z,35.95
2023-04-05T07:24:45.226Z,35.08
2023-04-05T07:26:06.096Z,39.75
2023-04-05T07:27:26.524Z,32.72
2023-04-05T07:28:47.087Z,32.93
2023-04-05T07:30:08.665Z,30.73
2023-04-05T07:31:29.465Z,37.53
2023-04-05T07:32:50.066Z,36.47
2023-04-05T07:34:10.701Z,35.78
2023-04-05T07:35:31.450Z,27.13
2023-04-05T07:36:52.151Z,32.17
2023-04-05T07:38:12.739Z,29.23
2023-04-05T07:39:34.739Z,29.07
2023-04-05T07:40:55.713Z,32.10
2023-04-05T07:42:16.107Z,34.08
2023-04-05T07:43:36.568Z,30.10
2023-04-05T07:44:57.162Z,34.20
2023-04-05T07:46:17.900Z,35.42
2023-04-05T07:47:38.587Z,24.63
2023-04-05T07:48:59.069Z,27.90
2023-04-05T07:50:19.620Z,31.67
2023-04-05T07:51:40.204Z,25.17
2023-04-05T07:53:01.188Z,25.67
2023-04-05T07:54:21.398Z,26.42
2023-04-05T07:55:43.230Z,27.80
2023-04-05T07:57:03.999Z,26.92
2023-04-05T07:58:25.208Z,31.60
2023-04-05T07:59:45.749Z,26.70
2023-04-05T08:01:06.376Z,35.90
2023-04-05T08:02:27.071Z,24.83
2023-04-05T08:03:47.709Z,27.03
2023-04-05T08:05:08.845Z,25.35
2023-04-05T08:06:29.278Z,28.92
2023-04-05T08:07:49.933Z,28.73
2023-04-05T08:09:10.956Z,26.90
2023-04-05T08:10:31.803Z,25.33
2023-04-05T08:11:53.523Z,27.70
2023-04-05T08:13:13.889Z,28.98
2023-04-05T08:14:34.572Z,23.57
2023-04-05T08:15:56.125Z,25.83
2023-04-05T08:17:16.471Z,25.27
2023-04-05T08:18:36.780Z,25.55
2023-04-05T08:19:57.288Z,22.48
2023-04-05T08:21:18.060Z,23.23
2023-04-05T08:22:38.700Z,21.37
2023-04-05T08:23:59.353Z,20.90
2023-04-05T08:25:20.053Z,24.63
2023-04-05T08:26:40.536Z,29.38
2023-04-05T08:28:02.236Z,22.35
2023-04-05T08:29:22.985Z,23.15
2023-04-05T08:30:43.883Z,27.20
2023-04-05T08:32:04.742Z,24.17
2023-04-05T08:33:25.681Z,25.83
2023-04-05T08:34:46.104Z,26.63
2023-04-05T08:36:07.431Z,18.60
2023-04-05T08:37:27.998Z,24.00
2023-04-05T08:38:48.823Z,26.13
2023-04-05T08:40:10.097Z,21.25
2023-04-05T08:41:34.138Z,25.58
2023-04-05T08:42:58.050Z,20.95
2023-04-05T08:44:22.554Z,23.58
2023-04-05T08:45:47.813Z,22.48
2023-04-05T08:47:09.007Z,25.27
2023-04-05T08:48:31.975Z,19.95
2023-04-05T08:49:52.759Z,22.45
2023-04-05T08:51:13.496Z,21.13
2023-04-05T08:52:34.354Z,24.67
2023-04-05T08:54:00.037Z,22.02
2023-04-05T08:55:20.855Z,23.00
2023-04-05T08:56:42.623Z,21.90
2023-04-05T08:58:07.851Z,20.75
2023-04-05T08:59:30.076Z,22.35
2023-04-05T09:00:51.324Z,22.05
2023-04-05T09:03:36.616Z,26.02
2023-04-05T09:04:57.242Z,21.48
2023-04-05T09:06:18.096Z,23.60
2023-04-05T09:07:38.782Z,29.15
2023-04-05T09:08:59.431Z,25.73
2023-04-05T09:10:21.191Z,20.83
2023-04-05T09:11:43.303Z,23.48
2023-04-05T09:13:03.672Z,26.30
2023-04-05T09:14:24.263Z,21.60
2023-04-05T09:15:46.312Z,20.80
2023-04-05T09:17:06.996Z,25.33
2023-04-05T09:18:27.646Z,17.75
2023-04-05T09:19:48.214Z,25.23
2023-04-05T09:21:08.771Z,23.60
2023-04-05T09:22:29.419Z,25.92
2023-04-05T09:23:52.624Z,20.65
2023-04-05T09:25:13.460Z,21.48
2023-04-05T09:26:34.132Z,22.75
2023-04-05T09:27:55.238Z,23.83
2023-04-05T09:29:29.071Z,23.42
2023-04-05T09:30:50.932Z,24.98
2023-04-05T09:32:12.421Z,22.42
2023-04-05T09:33:32.810Z,25.58
2023-04-05T09:34:54.081Z,29.42
2023-04-05T09:37:35.228Z,24.50
2023-04-05T09:39:05.800Z,23.00
2023-04-05T09:40:41.371Z,24.40
2023-04-05T09:42:06.146Z,26.52
2023-04-05T09:43:39.110Z,25.35
2023-04-05T09:45:00.658Z,29.15
2023-04-05T09:46:32.684Z,22.23
2023-04-05T09:47:57.664Z,19.90
2023-04-05T09:49:32.305Z,24.70
2023-04-05T09:51:12.480Z,27.23
2023-04-05T09:52:33.859Z,26.33
2023-04-05T09:53:58.139Z,25.80
2023-04-05T09:55:26.686Z,21.95
2023-04-05T09:56:54.735Z,25.73
2023-04-05T09:58:19.572Z,27.02
2023-04-05T09:59:40.066Z,24.83
2023-04-05T10:01:13.838Z,18.40
2023-04-05T10:02:39.516Z,25.55
2023-04-05T10:04:00.736Z,24.67
2023-04-05T10:05:24.627Z,26.90
2023-04-05T10:06:45.262Z,21.60
2023-04-05T10:08:06.018Z,26.73
2023-04-05T10:09:26.558Z,25.25
2023-04-05T10:10:47.886Z,20.45
2023-04-05T10:12:09.732Z,25.65
2023-04-05T10:13:30.140Z,21.83
2023-04-05T10:14:50.714Z,24.08
2023-04-05T10:16:13.780Z,24.52
2023-04-05T10:17:39.273Z,19.15
2023-04-05T10:18:59.791Z,19.17
2023-04-05T10:20:21.713Z,21.63
2023-04-05T10:21:43.530Z,20.20
2023-04-05T10:23:07.824Z,22.30
2023-04-05T10:24:34.450Z,20.00
2023-04-05T10:26:04.262Z,26.38
2023-04-05T10:27:30.708Z,23.35
2023-04-05T10:28:55.531Z,22.65
2023-04-05T10:30:16.708Z,19.35
2023-04-05T10:31:44.720Z,22.50
2023-04-05T10:33:13.841Z,25.10
2023-04-05T10:34:42.108Z,22.45
2023-04-05T10:36:07.205Z,25.20
2023-04-05T10:37:46.378Z,27.65
2023-04-05T10:39:12.691Z,25.98
2023-04-05T10:40:33.414Z,25.58
2023-04-05T10:41:55.651Z,22.27
2023-04-05T10:43:21.549Z,23.95
2023-04-05T10:44:43.862Z,22.38
2023-04-05T10:46:04.662Z,27.25
2023-04-05T10:48:52.731Z,20.20
2023-04-05T10:50:17.764Z,20.48
2023-04-05T10:51:39.070Z,20.55
2023-04-05T10:52:59.929Z,21.30
2023-04-05T10:54:21.238Z,23.77
2023-04-05T10:55:42.280Z,20.00
2023-04-05T10:57:07.559Z,19.35
2023-04-05T10:58:29.490Z,19.90
2023-04-05T10:59:50.567Z,21.15
2023-04-05T11:01:12.872Z,21.92
2023-04-05T11:02:34.020Z,23.08
2023-04-05T11:03:56.190Z,19.73
2023-04-05T11:05:30.297Z,25.73
2023-04-05T11:07:11.426Z,26.33
2023-04-05T11:08:32.579Z,21.80
2023-04-05T11:09:56.490Z,18.58
2023-04-05T11:11:17.983Z,38.53
2023-04-05T11:14:21.571Z,21.65
2023-04-05T11:15:41.903Z,22.85
2023-04-05T11:17:02.900Z,19.23
2023-04-05T11:18:23.425Z,23.60
2023-04-05T11:19:51.409Z,24.37
2023-04-05T11:21:12.038Z,21.83
2023-04-05T11:22:32.489Z,21.45
2023-04-05T11:24:04.090Z,20.93
2023-04-05T11:25:25.142Z,19.95
2023-04-05T11:26:55.535Z,19.63
2023-04-05T11:28:30.155Z,24.50
2023-04-05T11:29:50.722Z,22.05
2023-04-05T11:31:15.668Z,19.30
2023-04-05T11:32:40.321Z,23.25
2023-04-05T11:34:03.836Z,22.52
2023-04-05T11:35:25.713Z,24.30
2023-04-05T11:36:48.568Z,26.30
2023-04-05T11:38:09.257Z,23.65
2023-04-05T11:39:30.145Z,22.27
2023-04-05T11:40:51.214Z,23.27
2023-04-05T11:42:12.075Z,19.08
2023-04-05T11:43:33.474Z,24.20
2023-04-05T11:44:54.027Z,24.30
2023-04-05T11:46:14.955Z,20.20
2023-04-05T11:47:37.570Z,24.45
2023-04-05T11:48:58.109Z,28.42
2023-04-05T11:50:20.971Z,24.65
2023-04-05T11:51:43.367Z,21.92
2023-04-05T11:53:11.053Z,19.80
2023-04-05T11:54:31.855Z,20.10
2023-04-05T11:55:52.637Z,23.80
2023-04-05T11:57:14.621Z,25.83
2023-04-05T11:58:35.062Z,20.95
2023-04-05T11:59:55.655Z,19.65
2023-04-05T12:01:15.803Z,20.48
2023-04-05T12:02:36.435Z,22.58
2023-04-05T12:03:57.866Z,20.50
2023-04-05T12:05:18.953Z,19.67
2023-04-05T12:06:39.514Z,23.50
2023-04-05T12:08:01.769Z,23.88
2023-04-05T12:09:22.205Z,22.17
2023-04-05T12:10:42.812Z,29.95
2023-04-05T12:12:03.775Z,26.85
2023-04-05T12:13:28.106Z,23.20
2023-04-05T12:14:48.641Z,23.63
2023-04-05T12:16:09.749Z,26.83
2023-04-05T12:17:41.068Z,24.98
2023-04-05T12:19:01.672Z,22.35
2023-04-05T12:20:23.212Z,23.50
2023-04-05T12:21:43.981Z,21.83
2023-04-05T12:23:05.987Z,20.42
2023-04-05T12:24:26.780Z,26.95
2023-04-05T12:25:47.635Z,24.83
2023-04-05T12:27:08.282Z,23.80
2023-04-05T12:28:50.143Z,21.60
2023-04-05T12:31:36.070Z,28.30
2023-04-05T12:32:56.494Z,25.05
2023-04-05T12:34:24.081Z,22.25
2023-04-05T12:35:44.581Z,25.80
2023-04-05T12:37:05.426Z,23.77
2023-04-05T12:38:28.246Z,26.10
2023-04-05T12:39:49.509Z,28.20
2023-04-05T12:41:10.226Z,26.88
2023-04-05T12:42:33.038Z,24.75
2023-04-05T12:43:53.839Z,24.80
2023-04-05T12:45:14.662Z,25.77
2023-04-05T12:46:41.658Z,23.02
2023-04-05T12:48:02.304Z,24.35
2023-04-05T12:49:22.939Z,22.73
2023-04-05T12:50:44.867Z,21.50
2023-04-05T12:52:05.815Z,25.38
2023-04-05T12:53:28.182Z,28.83
2023-04-05T12:54:54.020Z,20.27
2023-04-05T12:56:15.897Z,24.00
2023-04-05T12:57:36.450Z,21.52
2023-04-05T12:58:56.963Z,25.87
2023-04-05T13:00:18.452Z,22.33
2023-04-05T13:01:39.279Z,34.35
2023-04-05T13:03:00.200Z,24.17
2023-04-05T13:04:21.000Z,22.05
2023-04-05T13:05:41.651Z,26.25
2023-04-05T13:07:02.625Z,24.40
2023-04-05T13:08:23.264Z,24.35
2023-04-05T13:09:45.545Z,24.90
2023-04-05T13:11:06.259Z,26.85
2023-04-05T13:12:26.995Z,23.13
2023-04-05T13:13:47.731Z,29.00
2023-04-05T13:15:09.389Z,25.70
2023-04-05T13:16:30.133Z,27.90
2023-04-05T13:17:50.755Z,25.80
2023-04-05T13:19:11.065Z,30.15
2023-04-05T13:20:32.258Z,28.63
2023-04-05T13:21:52.966Z,23.08
2023-04-05T13:23:13.756Z,28.55
2023-04-05T13:24:34.371Z,25.52
2023-04-05T13:25:59.402Z,29.90
2023-04-05T13:27:20.515Z,26.40
2023-04-05T13:28:41.215Z,25.35
2023-04-05T13:30:01.931Z,25.40
2023-04-05T13:31:22.736Z,25.50
2023-04-05T13:32:43.685Z,28.40
2023-04-05T13:34:04.793Z,27.35
2023-04-05T13:35:25.588Z,28.65
2023-04-05T13:36:46.314Z,26.17
2023-04-05T13:38:06.808Z,24.55
2023-04-05T13:39:27.475Z,33.78
2023-04-05T13:40:48.278Z,29.20
2023-04-05T13:42:10.251Z,33.45
2023-04-05T13:43:31.080Z,34.08
2023-04-05T13:44:51.575Z,31.40
2023-04-05T13:46:12.079Z,26.25
2023-04-05T13:47:32.523Z,26.15
2023-04-05T13:48:52.938Z,27.02
2023-04-05T13:50:13.599Z,31.27
2023-04-05T13:51:34.690Z,31.07
2023-04-05T13:52:55.462Z,30.20
2023-04-05T13:54:15.655Z,29.15
2023-04-05T13:55:36.221Z,31.25
2023-04-05T13:56:56.893Z,29.42
2023-04-05T13:58:18.947Z,29.02
2023-04-05T13:59:40.004Z,30.25
2023-04-05T14:01:00.734Z,29.63
2023-04-05T14:02:21.268Z,30.02
2023-04-05T14:03:41.848Z,30.27
2023-04-05T14:05:02.791Z,26.83
2023-04-05T14:06:23.557Z,30.55
2023-04-05T14:07:44.213Z,29.50
2023-04-05T14:09:04.900Z,31.73
2023-04-05T14:10:27.757Z,32.78
2023-04-05T14:11:48.543Z,29.88
2023-04-05T14:13:09.343Z,28.55
2023-04-05T14:14:31.058Z,36.45
2023-04-05T14:15:51.683Z,33.05
2023-04-05T14:17:12.345Z,37.70
2023-04-05T14:18:32.955Z,34.63
2023-04-05T14:19:53.658Z,39.38
2023-04-05T14:21:14.385Z,36.85
2023-04-05T14:22:34.793Z,35.88
2023-04-05T14:23:55.587Z,37.80
2023-04-05T14:25:16.316Z,34.53
2023-04-05T14:26:37.111Z,38.95
2023-04-05T14:27:57.798Z,32.80
2023-04-05T14:29:18.590Z,39.05
2023-04-05T14:30:40.880Z,34.00
2023-04-05T14:32:01.654Z,38.38
2023-04-05T14:33:22.311Z,39.17
2023-04-05T14:34:42.697Z,39.17
2023-04-05T14:36:03.963Z,37.28
2023-04-05T14:37:24.967Z,39.83
2023-04-05T14:38:45.527Z,35.55
2023-04-05T14:40:06.929Z,35.33
2023-04-05T14:41:27.537Z,33.45
2023-04-05T14:42:50.148Z,33.97
2023-04-05T14:44:10.914Z,33.78
2023-04-05T14:45:31.576Z,36.50
2023-04-05T14:46:53.601Z,36.35
2023-04-05T14:48:13.991Z,35.05
2023-04-05T14:49:34.648Z,34.30
2023-04-05T14:50:55.954Z,33.35
2023-04-05T14:52:16.660Z,39.55
2023-04-05T14:53:37.403Z,36.83
2023-04-05T14:54:58.043Z,37.55
2023-04-05T14:56:18.741Z,34.80
2023-04-05T14:57:39.613Z,36.85
2023-04-05T14:59:00.582Z,37.92
2023-04-05T15:00:21.466Z,35.75
2023-04-05T15:01:42.013Z,37.80
2023-04-05T15:03:04.402Z,48.53
2023-04-05T15:04:25.282Z,38.97
2023-04-05T15:05:46.492Z,41.78
2023-04-05T15:07:06.995Z,33.95
2023-04-05T15:08:27.833Z,36.75
2023-04-05T15:09:48.703Z,35.40
2023-04-05T15:11:09.384Z,35.67
2023-04-05T15:12:29.961Z,38.78
2023-04-05T15:13:50.866Z,39.97
2023-04-05T15:15:11.915Z,37.10
2023-04-05T15:16:32.362Z,37.35
2023-04-05T15:17:53.237Z,33.30
2023-04-05T15:19:15.368Z,38.83
2023-04-05T15:20:36.232Z,34.75
2023-04-05T15:21:56.923Z,31.20
2023-04-05T15:23:17.400Z,32.65
2023-04-05T15:24:38.073Z,32.40
2023-04-05T15:25:58.845Z,34.50
2023-04-05T15:27:19.623Z,34.13
2023-04-05T15:28:40.200Z,32.83
2023-04-05T15:30:01.099Z,41.00
2023-04-05T15:31:21.695Z,34.00
2023-04-05T15:32:42.295Z,39.23
2023-04-05T15:34:02.836Z,30.23
2023-04-05T15:35:25.110Z,34.95
2023-04-05T15:36:45.808Z,31.25
2023-04-05T15:38:06.480Z,32.37
2023-04-05T15:39:27.213Z,33.05
2023-04-05T15:40:48.030Z,34.28
2023-04-05T15:42:08.701Z,34.75
2023-04-05T15:43:30.786Z,31.50
2023-04-05T15:44:51.448Z,31.52
2023-04-05T15:46:12.082Z,29.25
2023-04-05T15:47:32.829Z,33.45
2023-04-05T15:48:53.701Z,39.22
2023-04-05T15:50:14.438Z,29.98
2023-04-05T15:51:37.001Z,32.88
2023-04-05T15:52:57.565Z,32.58
2023-04-05T15:54:18.322Z,32.75
2023-04-05T15:55:39.083Z,35.97
2023-04-05T15:56:59.910Z,37.22
2023-04-05T15:58:20.552Z,29.33
2023-04-05T15:59:41.509Z,30.38
2023-04-05T16:01:02.065Z,36.67
2023-04-05T16:02:22.934Z,30.95
2023-04-05T16:03:43.661Z,31.15
2023-04-05T16:05:05.091Z,30.33
2023-04-05T16:06:25.445Z,38.17
2023-04-05T16:07:47.593Z,42.53
2023-04-05T16:09:08.229Z,45.88
2023-04-05T16:10:28.925Z,47.97
2023-04-05T16:11:49.751Z,50.20
2023-04-05T16:13:10.722Z,43.23
2023-04-05T16:14:31.241Z,48.72
2023-04-05T16:15:51.948Z,45.75
2023-04-05T16:17:12.678Z,44.95
2023-04-05T16:18:33.316Z,53.30
2023-04-05T16:19:56.449Z,44.75
2023-04-05T16:21:17.862Z,45.50
2023-04-05T16:22:38.196Z,48.20
2023-04-05T16:24:00.365Z,48.10
2023-04-05T16:25:20.976Z,44.58
2023-04-05T16:26:41.933Z,48.47
2023-04-05T16:28:02.750Z,48.95
2023-04-05T16:29:23.486Z,52.38
2023-04-05T16:30:45.621Z,51.38
2023-04-05T16:32:08.180Z,48.65
2023-04-05T16:33:28.820Z,54.58
2023-04-05T16:34:49.570Z,50.70
2023-04-05T16:36:10.282Z,49.08
2023-04-05T16:37:30.871Z,48.50
2023-04-05T16:38:51.419Z,52.63
2023-04-05T16:40:13.603Z,51.33
2023-04-05T16:41:34.701Z,52.75
2023-04-05T16:42:55.797Z,47.08
2023-04-05T16:44:16.373Z,54.03
2023-04-05T16:45:37.159Z,46.65
2023-04-05T16:46:57.709Z,49.47
2023-04-05T16:48:18.367Z,48.38
2023-04-05T16:49:38.905Z,48.72
2023-04-05T16:50:59.337Z,48.60
2023-04-05T16:52:19.928Z,49.73
2023-04-05T16:53:40.528Z,50.38
2023-04-05T16:55:01.082Z,48.80
2023-04-05T16:56:23.176Z,48.20
2023-04-05T16:57:43.620Z,48.15
2023-04-05T16:59:06.700Z,49.33
2023-04-05T17:00:28.747Z,47.22
2023-04-05T17:01:49.610Z,48.70
2023-04-05T17:03:10.712Z,55.47
2023-04-05T17:04:31.430Z,47.53
2023-04-05T17:05:52.206Z,51.35
2023-04-05T17:07:12.866Z,47.53
2023-04-05T17:08:33.603Z,49.70
2023-04-05T17:09:54.274Z,48.63
2023-04-05T17:11:14.960Z,49.00
2023-04-05T17:12:37.257Z,48.03
2023-04-05T17:13:58.172Z,48.50
2023-04-05T17:15:18.923Z,49.60
2023-04-05T17:16:39.652Z,47.95
2023-04-05T17:18:00.553Z,46.47
2023-04-05T17:19:21.321Z,48.45
2023-04-05T17:20:42.226Z,49.72
2023-04-05T17:22:02.653Z,48.55
2023-04-05T17:23:24.173Z,50.38
2023-04-05T17:26:06.169Z,53.00
2023-04-05T17:27:26.853Z,47.03
2023-04-05T17:28:48.783Z,48.92
2023-04-05T17:30:10.133Z,46.65
2023-04-05T17:31:31.029Z,51.22
2023-04-05T17:32:51.903Z,53.08
2023-04-05T17:34:14.419Z,51.85
2023-04-05T17:35:35.100Z,48.67
2023-04-05T17:36:56.043Z,53.33
2023-04-05T17:38:16.696Z,47.15
2023-04-05T17:39:37.633Z,48.05
2023-04-05T17:40:58.477Z,44.63
2023-04-05T17:42:19.388Z,54.13
2023-04-05T17:43:40.002Z,54.30
2023-04-05T17:45:01.942Z,57.15
2023-04-05T17:46:33.896Z,54.95
2023-04-05T17:48:01.830Z,45.65
2023-04-05T17:49:22.384Z,48.27